createdAt,value
2018-06-12T00:00:22.667Z,0
2018-06-12T00:01:24.711Z,0
2018-06-12T00:02:26.748Z,0
2018-06-12T00:03:28.781Z,0
2018-06-12T00:04:31.122Z,0
2018-06-12T00:05:33.161Z,0
2018-06-12T00:06:35.570Z,0
2018-06-12T00:07:37.610Z,0
2018-06-12T00:08:39.649Z,0
2018-06-12T00:09:41.689Z,0
2018-06-12T00:10:44.115Z,0
2018-06-12T00:11:46.144Z,0
2018-06-12T00:12:48.188Z,0
2018-06-12T00:13:50.213Z,0
2018-06-12T00:14:52.548Z,0
2018-06-12T00:15:54.588Z,0
2018-06-12T00:16:56.626Z,0
2018-06-12T00:17:58.671Z,0
2018-06-12T00:19:00.710Z,0
2018-06-12T00:20:03.041Z,0
2018-06-12T00:21:05.093Z,0
2018-06-12T00:22:07.132Z,0
2018-06-12T00:23:09.164Z,0
2018-06-12T00:24:11.206Z,0
2018-06-12T00:25:13.243Z,0
2018-06-12T00:26:15.722Z,0
2018-06-12T00:27:17.762Z,0
2018-06-12T00:28:19.805Z,0
2018-06-12T00:29:21.843Z,0
2018-06-12T00:30:23.886Z,0
2018-06-12T00:31:25.914Z,0
2018-06-12T00:32:27.952Z,0
2018-06-12T00:33:29.987Z,0
2018-06-12T00:34:32.018Z,0
2018-06-12T00:35:34.055Z,0
2018-06-12T00:36:36.094Z,0
2018-06-12T00:37:38.133Z,0
2018-06-12T00:38:40.844Z,0
2018-06-12T00:39:42.876Z,0
2018-06-12T00:40:44.916Z,0
2018-06-12T00:41:47.241Z,0
2018-06-12T00:42:49.285Z,0
2018-06-12T00:43:51.319Z,0
2018-06-12T00:44:53.362Z,0
2018-06-12T00:45:55.409Z,0
2018-06-12T00:46:57.441Z,0
2018-06-12T00:47:59.868Z,0
2018-06-12T00:49:01.914Z,0
2018-06-12T00:50:03.956Z,0
2018-06-12T00:51:05.982Z,0
2018-06-12T00:52:08.054Z,0
2018-06-12T00:53:10.094Z,0
2018-06-12T00:54:12.434Z,0
2018-06-12T00:55:14.467Z,0
2018-06-12T00:56:16.515Z,0
2018-06-12T00:57:19.511Z,0
2018-06-12T00:58:21.550Z,0
2018-06-12T00:59:23.590Z,0
2018-06-12T01:00:25.628Z,0
2018-06-12T01:01:27.665Z,0
2018-06-12T01:02:29.700Z,0
2018-06-12T01:03:31.734Z,0
2018-06-12T01:04:33.803Z,0
2018-06-12T01:05:35.836Z,0
2018-06-12T01:06:37.873Z,0
2018-06-12T01:07:39.906Z,0
2018-06-12T01:08:41.950Z,0
2018-06-12T01:09:44.274Z,0
2018-06-12T01:10:46.311Z,0
2018-06-12T01:11:48.349Z,0
2018-06-12T01:12:50.396Z,0
2018-06-12T01:13:52.438Z,0
2018-06-12T01:14:54.846Z,0
2018-06-12T01:15:56.881Z,0
2018-06-12T01:16:58.919Z,0
2018-06-12T01:18:00.963Z,0
2018-06-12T01:19:02.997Z,0
2018-06-12T01:20:05.027Z,0
2018-06-12T01:21:07.069Z,0
2018-06-12T01:22:09.483Z,0
2018-06-12T01:23:11.521Z,0
2018-06-12T01:24:13.562Z,0
2018-06-12T01:25:15.598Z,0
2018-06-12T01:26:19.349Z,0
2018-06-12T01:27:21.374Z,0
2018-06-12T01:28:23.803Z,0
2018-06-12T01:29:25.837Z,0
2018-06-12T01:30:27.875Z,0
2018-06-12T01:31:30.202Z,0
2018-06-12T01:32:32.242Z,0
2018-06-12T01:33:34.275Z,0
2018-06-12T01:34:36.304Z,0
2018-06-12T01:35:38.342Z,0
2018-06-12T01:36:40.680Z,0
2018-06-12T01:37:43.003Z,0
2018-06-12T01:38:45.130Z,0
2018-06-12T01:39:47.170Z,0
2018-06-12T01:40:49.221Z,0
2018-06-12T01:41:51.541Z,0
2018-06-12T01:42:54.155Z,0
2018-06-12T01:43:56.195Z,0
2018-06-12T01:44:58.235Z,0
2018-06-12T01:46:00.555Z,0
2018-06-12T01:47:02.877Z,0
2018-06-12T01:48:05.594Z,0
2018-06-12T01:49:07.922Z,0
2018-06-12T01:50:09.958Z,0
2018-06-12T01:51:11.998Z,0
2018-06-12T01:52:14.036Z,0
2018-06-12T01:53:16.079Z,0
2018-06-12T01:54:18.401Z,0
2018-06-12T01:55:20.431Z,0
2018-06-12T01:56:22.753Z,0
2018-06-12T01:57:24.794Z,0
2018-06-12T01:58:26.828Z,0
2018-06-12T01:59:28.865Z,0
2018-06-12T02:00:30.911Z,0
2018-06-12T02:01:33.336Z,0
2018-06-12T02:02:35.362Z,0
2018-06-12T02:03:37.392Z,0
2018-06-12T02:04:39.431Z,0
2018-06-12T02:05:41.467Z,0
2018-06-12T02:06:43.510Z,0
2018-06-12T02:07:45.557Z,0
2018-06-12T02:08:47.880Z,0
2018-06-12T02:14:36.735Z,0
2018-06-12T02:15:38.776Z,0
2018-06-12T02:16:40.821Z,0
2018-06-12T02:17:43.242Z,0
2018-06-12T02:18:45.278Z,0
2018-06-12T02:19:47.316Z,0
2018-06-12T02:20:49.354Z,0
2018-06-12T02:21:51.690Z,0
2018-06-12T02:22:53.717Z,0
2018-06-12T02:23:56.044Z,0
2018-06-12T02:24:58.081Z,0
2018-06-12T02:26:00.425Z,0
2018-06-12T02:27:02.460Z,0
2018-06-12T02:28:04.499Z,0
2018-06-12T02:29:06.533Z,0
2018-06-12T02:30:09.239Z,0
2018-06-12T02:31:11.281Z,0
2018-06-12T02:32:13.610Z,0
2018-06-12T02:33:15.923Z,0
2018-06-12T02:34:18.251Z,0
2018-06-12T02:35:20.289Z,0
2018-06-12T02:36:22.615Z,0
2018-06-12T02:37:24.656Z,0
2018-06-12T02:38:27.070Z,0
2018-06-12T02:39:29.114Z,0
2018-06-12T02:40:31.155Z,0
2018-06-12T02:41:33.866Z,0
2018-06-12T02:42:36.204Z,0
2018-06-12T02:43:38.831Z,0
2018-06-12T02:44:41.253Z,0
2018-06-12T02:45:43.207Z,0
2018-06-12T02:46:45.529Z,0
2018-06-12T02:47:47.575Z,0
2018-06-12T02:48:49.609Z,1
2018-06-12T02:49:51.646Z,1
2018-06-12T02:50:53.979Z,1
2018-06-12T02:51:56.016Z,1
2018-06-12T02:52:58.348Z,1
2018-06-12T02:54:00.676Z,1
2018-06-12T02:55:02.995Z,1
2018-06-12T02:56:05.045Z,1
2018-06-12T02:57:07.384Z,1
2018-06-12T02:58:09.693Z,1
2018-06-12T02:59:12.040Z,1
2018-06-12T03:00:14.378Z,1
2018-06-12T03:01:16.423Z,1
2018-06-12T03:02:19.051Z,2
2018-06-12T03:03:21.373Z,2
2018-06-12T03:04:23.411Z,2
2018-06-12T03:05:25.750Z,2
2018-06-12T03:06:28.161Z,2
2018-06-12T03:07:30.489Z,2
2018-06-12T03:08:32.820Z,3
2018-06-12T03:09:35.160Z,3
2018-06-12T03:10:37.489Z,3
2018-06-12T03:11:39.830Z,3
2018-06-12T03:12:42.261Z,3
2018-06-12T03:13:44.299Z,3
2018-06-12T03:14:46.331Z,3
2018-06-12T03:15:48.362Z,3
2018-06-12T03:16:50.684Z,3
2018-06-12T03:17:52.721Z,3
2018-06-12T03:18:54.760Z,4
2018-06-12T03:19:56.801Z,4
2018-06-12T03:20:59.534Z,4
2018-06-12T03:22:01.574Z,4
2018-06-12T03:23:03.907Z,5
2018-06-12T03:24:05.941Z,5
2018-06-12T03:25:07.980Z,5
2018-06-12T03:26:10.403Z,5
2018-06-12T03:27:12.451Z,5
2018-06-12T03:28:14.483Z,6
2018-06-12T03:29:16.522Z,6
2018-06-12T03:30:18.553Z,6
2018-06-12T03:31:20.987Z,6
2018-06-12T03:32:23.412Z,6
2018-06-12T03:33:25.447Z,6
2018-06-12T03:34:27.484Z,6
2018-06-12T03:35:29.526Z,6
2018-06-12T03:36:31.561Z,6
2018-06-12T03:37:33.603Z,6
2018-06-12T03:38:35.641Z,6
2018-06-12T03:39:37.967Z,7
2018-06-12T03:40:40.008Z,7
2018-06-12T03:41:42.044Z,7
2018-06-12T03:42:44.083Z,8
2018-06-12T03:43:46.119Z,9
2018-06-12T03:44:48.164Z,8
2018-06-12T03:45:50.770Z,9
2018-06-12T03:46:52.803Z,9
2018-06-12T03:47:54.844Z,9
2018-06-12T03:48:56.878Z,9
2018-06-12T03:49:58.919Z,9
2018-06-12T03:51:01.951Z,9
2018-06-12T03:52:03.984Z,9
2018-06-12T03:53:06.030Z,9
2018-06-12T03:54:08.070Z,9
2018-06-12T03:55:10.110Z,10
2018-06-12T03:56:12.142Z,10
2018-06-12T03:57:14.182Z,11
2018-06-12T03:58:17.281Z,11
2018-06-12T03:59:19.312Z,11
2018-06-12T04:00:21.640Z,10
2018-06-12T04:01:24.065Z,10
2018-06-12T04:02:26.091Z,10
2018-06-12T04:03:28.125Z,11
2018-06-12T04:04:30.445Z,11
2018-06-12T04:05:32.484Z,11
2018-06-12T04:06:34.520Z,11
2018-06-12T04:07:37.238Z,11
2018-06-12T04:08:39.242Z,11
2018-06-12T04:09:41.274Z,11
2018-06-12T04:10:43.310Z,11
2018-06-12T04:11:45.352Z,11
2018-06-12T04:12:47.386Z,12
2018-06-12T04:13:49.430Z,12
2018-06-12T04:14:51.887Z,12
2018-06-12T04:15:54.619Z,12
2018-06-12T04:16:56.943Z,12
2018-06-12T04:17:58.981Z,12
2018-06-12T04:19:01.026Z,12
2018-06-12T04:20:03.348Z,13
2018-06-12T04:21:05.375Z,13
2018-06-12T04:22:07.416Z,13
2018-06-12T04:23:09.839Z,14
2018-06-12T04:24:11.871Z,14
2018-06-12T04:25:13.911Z,14
2018-06-12T04:26:16.342Z,14
2018-06-12T04:27:18.657Z,14
2018-06-12T04:28:21.004Z,14
2018-06-12T04:29:23.037Z,14
2018-06-12T04:30:25.079Z,15
2018-06-12T04:31:27.117Z,15
2018-06-12T04:32:29.153Z,16
2018-06-12T04:33:31.197Z,17
2018-06-12T04:34:33.233Z,17
2018-06-12T04:35:35.541Z,17
2018-06-12T04:36:37.585Z,17
2018-06-12T04:37:39.624Z,17
2018-06-12T04:38:41.662Z,17
2018-06-12T04:39:43.705Z,18
2018-06-12T04:40:46.123Z,19
2018-06-12T04:41:48.169Z,19
2018-06-12T04:42:50.572Z,19
2018-06-12T04:43:52.613Z,19
2018-06-12T04:44:54.657Z,19
2018-06-12T04:45:56.693Z,20
2018-06-12T04:46:58.738Z,21
2018-06-12T04:48:01.056Z,21
2018-06-12T04:49:03.374Z,22
2018-06-12T04:50:05.417Z,21
2018-06-12T04:51:07.452Z,21
2018-06-12T04:52:09.476Z,21
2018-06-12T04:53:11.519Z,22
2018-06-12T04:54:13.859Z,23
2018-06-12T04:55:15.893Z,24
2018-06-12T04:56:17.923Z,25
2018-06-12T04:57:20.267Z,26
2018-06-12T04:58:22.873Z,27
2018-06-12T04:59:24.915Z,27
2018-06-12T05:00:26.945Z,27
2018-06-12T05:01:28.986Z,27
2018-06-12T05:02:31.025Z,27
2018-06-12T05:03:33.444Z,27
2018-06-12T05:04:35.481Z,27
2018-06-12T05:05:37.826Z,27
2018-06-12T05:06:39.864Z,27
2018-06-12T05:07:41.902Z,27
2018-06-12T05:08:43.940Z,27
2018-06-12T05:09:45.978Z,28
2018-06-12T05:10:48.017Z,29
2018-06-12T05:11:50.053Z,28
2018-06-12T05:12:52.090Z,28
2018-06-12T05:13:54.520Z,29
2018-06-12T05:14:56.556Z,29
2018-06-12T05:15:58.590Z,31
2018-06-12T05:17:01.027Z,31
2018-06-12T05:18:03.360Z,31
2018-06-12T05:19:05.701Z,32
2018-06-12T05:20:08.401Z,33
2018-06-12T05:21:10.435Z,32
2018-06-12T05:22:12.474Z,33
2018-06-12T05:23:14.502Z,33
2018-06-12T05:24:16.932Z,33
2018-06-12T05:25:18.983Z,33
2018-06-12T05:26:21.025Z,33
2018-06-12T05:27:23.062Z,34
2018-06-12T05:28:25.102Z,36
2018-06-12T05:29:27.829Z,36
2018-06-12T05:30:30.149Z,37
2018-06-12T05:31:32.187Z,37
2018-06-12T05:32:34.222Z,37
2018-06-12T05:33:36.260Z,38
2018-06-12T05:34:38.314Z,39
2018-06-12T05:35:40.354Z,41
2018-06-12T05:36:42.387Z,41
2018-06-12T05:37:44.424Z,40
2018-06-12T05:38:46.465Z,42
2018-06-12T05:39:48.500Z,44
2018-06-12T05:40:50.536Z,45
2018-06-12T05:41:53.269Z,45
2018-06-12T05:42:55.300Z,44
2018-06-12T05:43:57.330Z,44
2018-06-12T05:44:59.367Z,45
2018-06-12T05:46:01.411Z,46
2018-06-12T05:47:04.148Z,45
2018-06-12T05:48:06.571Z,45
2018-06-12T05:49:08.892Z,45
2018-06-12T05:50:11.222Z,47
2018-06-12T05:51:13.260Z,49
2018-06-12T05:52:15.593Z,48
2018-06-12T05:53:17.635Z,47
2018-06-12T05:54:19.674Z,49
2018-06-12T05:55:21.710Z,50
2018-06-12T05:56:23.742Z,51
2018-06-12T05:57:25.781Z,51
2018-06-12T05:58:27.819Z,52
2018-06-12T05:59:29.853Z,52
2018-06-12T06:00:31.892Z,51
2018-06-12T06:01:33.927Z,51
2018-06-12T06:02:35.968Z,50
2018-06-12T06:03:38.006Z,50
2018-06-12T06:04:40.320Z,50
2018-06-12T06:05:42.373Z,50
2018-06-12T06:06:44.701Z,51
2018-06-12T06:07:46.720Z,52
2018-06-12T06:08:48.758Z,50
2018-06-12T06:09:50.786Z,49
2018-06-12T06:10:53.143Z,50
2018-06-12T06:12:01.462Z,52
2018-06-12T06:13:03.900Z,52
2018-06-12T06:14:05.948Z,51
2018-06-12T06:15:08.270Z,53
2018-06-12T06:16:10.305Z,54
2018-06-12T06:17:12.655Z,56
2018-06-12T06:18:14.694Z,53
2018-06-12T06:19:16.734Z,48
2018-06-12T06:20:18.780Z,44
2018-06-12T06:21:20.845Z,44
2018-06-12T06:22:22.921Z,45
2018-06-12T06:23:24.925Z,45
2018-06-12T06:24:27.249Z,46
2018-06-12T06:25:29.288Z,47
2018-06-12T06:26:31.385Z,50
2018-06-12T06:27:33.710Z,52
2018-06-12T06:28:36.037Z,52
2018-06-12T06:29:38.112Z,52
2018-06-12T06:30:40.127Z,52
2018-06-12T06:31:42.155Z,51
2018-06-12T06:32:44.196Z,52
2018-06-12T06:33:46.234Z,53
2018-06-12T06:34:48.275Z,53
2018-06-12T06:35:50.311Z,53
2018-06-12T06:36:52.356Z,52
2018-06-12T06:37:54.396Z,53
2018-06-12T06:38:56.814Z,54
2018-06-12T06:39:58.858Z,56
2018-06-12T06:41:00.903Z,57
2018-06-12T06:42:02.941Z,56
2018-06-12T06:43:05.351Z,55
2018-06-12T06:44:07.354Z,54
2018-06-12T06:45:09.395Z,54
2018-06-12T06:46:11.446Z,54
2018-06-12T06:47:13.487Z,53
2018-06-12T06:48:15.516Z,52
2018-06-12T06:49:17.559Z,50
2018-06-12T06:50:19.891Z,49
2018-06-12T06:51:22.220Z,48
2018-06-12T06:52:24.262Z,46
2018-06-12T06:53:26.682Z,46
2018-06-12T06:54:28.729Z,47
2018-06-12T06:55:30.757Z,48
2018-06-12T06:56:33.079Z,52
2018-06-12T06:57:35.127Z,53
2018-06-12T06:58:37.167Z,54
2018-06-12T06:59:39.231Z,57
2018-06-12T07:00:41.267Z,59
2018-06-12T07:01:43.303Z,59
2018-06-12T07:02:45.638Z,59
2018-06-12T07:03:47.666Z,61
2018-06-12T07:04:49.652Z,62
2018-06-12T07:05:51.692Z,61
2018-06-12T07:06:54.031Z,57
2018-06-12T07:07:56.456Z,55
2018-06-12T07:08:59.106Z,54
2018-06-12T07:10:01.158Z,53
2018-06-12T07:11:03.204Z,52
2018-06-12T07:12:05.287Z,51
2018-06-12T07:13:07.322Z,51
2018-06-12T07:14:09.381Z,51
2018-06-12T07:15:11.421Z,52
2018-06-12T07:16:13.521Z,53
2018-06-12T07:17:15.569Z,55
2018-06-12T07:18:17.643Z,58
2018-06-12T07:19:19.696Z,62
2018-06-12T07:20:21.742Z,62
2018-06-12T07:21:24.143Z,61
2018-06-12T07:22:26.187Z,61
2018-06-12T07:23:28.642Z,61
2018-06-12T07:24:30.681Z,62
2018-06-12T07:25:33.177Z,64
2018-06-12T07:26:35.215Z,64
2018-06-12T07:27:37.253Z,65
2018-06-12T07:28:39.405Z,63
2018-06-12T07:29:41.562Z,61
2018-06-12T07:30:43.604Z,60
2018-06-12T07:31:46.048Z,61
2018-06-12T07:32:48.081Z,63
2018-06-12T07:33:50.506Z,66
2018-06-12T07:34:52.548Z,69
2018-06-12T07:35:54.600Z,70
2018-06-12T07:36:56.641Z,68
2018-06-12T07:37:58.673Z,67
2018-06-12T07:39:00.728Z,65
2018-06-12T07:40:03.151Z,64
2018-06-12T07:41:05.413Z,64
2018-06-12T07:42:07.455Z,64
2018-06-12T07:43:09.503Z,65
2018-06-12T07:44:11.833Z,66
2018-06-12T07:45:13.869Z,67
2018-06-12T07:46:16.020Z,68
2018-06-12T07:47:18.351Z,71
2018-06-12T07:48:20.382Z,73
2018-06-12T07:49:22.418Z,76
2018-06-12T07:50:24.465Z,80
2018-06-12T07:51:26.509Z,81
2018-06-12T07:52:28.587Z,83
2018-06-12T07:53:30.634Z,83
2018-06-12T07:54:32.791Z,83
2018-06-12T07:55:34.840Z,84
2018-06-12T07:56:36.874Z,86
2018-06-12T07:57:45.183Z,86
2018-06-12T07:58:47.597Z,85
2018-06-12T07:59:49.638Z,80
2018-06-12T08:00:52.020Z,76
2018-06-12T08:01:54.420Z,76
2018-06-12T08:02:56.455Z,78
2018-06-12T08:03:58.900Z,81
2018-06-12T08:05:00.985Z,83
2018-06-12T08:06:03.314Z,85
2018-06-12T08:07:05.930Z,87
2018-06-12T08:08:07.897Z,86
2018-06-12T08:09:10.157Z,84
2018-06-12T08:10:12.194Z,83
2018-06-12T08:11:14.518Z,84
2018-06-12T08:12:16.574Z,85
2018-06-12T08:13:18.616Z,85
2018-06-12T08:14:20.652Z,86
2018-06-12T08:15:22.710Z,86
2018-06-12T08:16:24.757Z,83
2018-06-12T08:17:26.799Z,77
2018-06-12T08:18:28.834Z,74
2018-06-12T08:19:30.906Z,71
2018-06-12T08:20:32.939Z,68
2018-06-12T08:21:34.973Z,68
2018-06-12T08:22:37.020Z,67
2018-06-12T08:23:39.056Z,68
2018-06-12T08:24:41.208Z,68
2018-06-12T08:25:43.684Z,68
2018-06-12T08:26:46.342Z,69
2018-06-12T08:27:48.396Z,66
2018-06-12T08:28:50.736Z,63
2018-06-12T08:29:52.939Z,61
2018-06-12T08:30:54.836Z,59
2018-06-12T08:31:56.881Z,59
2018-06-12T08:32:58.931Z,60
2018-06-12T08:34:00.970Z,58
2018-06-12T08:35:03.021Z,57
2018-06-12T08:36:05.073Z,59
2018-06-12T08:37:07.111Z,57
2018-06-12T08:38:09.161Z,58
2018-06-12T08:39:11.203Z,60
2018-06-12T08:40:13.241Z,62
2018-06-12T08:41:15.281Z,64
2018-06-12T08:42:17.327Z,67
2018-06-12T08:43:19.365Z,69
2018-06-12T08:44:21.417Z,70
2018-06-12T08:45:23.459Z,71
2018-06-12T08:46:26.263Z,70
2018-06-12T08:47:28.300Z,69
2018-06-12T08:48:30.341Z,69
2018-06-12T08:49:32.383Z,69
2018-06-12T08:50:34.733Z,69
2018-06-12T08:51:36.773Z,69
2018-06-12T08:52:38.819Z,67
2018-06-12T08:53:40.853Z,66
2018-06-12T08:54:43.188Z,66
2018-06-12T08:55:45.237Z,66
2018-06-12T08:56:47.571Z,68
2018-06-12T08:57:49.610Z,71
2018-06-12T08:58:51.644Z,74
2018-06-12T08:59:53.676Z,76
2018-06-12T09:00:55.723Z,77
2018-06-12T09:01:57.756Z,79
2018-06-12T09:02:59.807Z,79
2018-06-12T09:04:02.246Z,81
2018-06-12T09:05:04.296Z,80
2018-06-12T09:06:06.327Z,79
2018-06-12T09:07:08.364Z,77
2018-06-12T09:08:10.703Z,77
2018-06-12T09:09:12.751Z,77
2018-06-12T09:10:15.469Z,76
2018-06-12T09:11:17.802Z,75
2018-06-12T09:12:20.130Z,73
2018-06-12T09:13:22.176Z,73
2018-06-12T09:14:24.227Z,76
2018-06-12T09:15:26.570Z,79
2018-06-12T09:16:28.604Z,78
2018-06-12T09:17:30.656Z,77
2018-06-12T09:18:32.701Z,81
2018-06-12T09:19:34.742Z,83
2018-06-12T09:20:36.783Z,82
2018-06-12T09:21:39.106Z,83
2018-06-12T09:22:41.143Z,86
2018-06-12T09:23:43.179Z,92
2018-06-12T09:24:45.611Z,95
2018-06-12T09:25:47.664Z,98
2018-06-12T09:26:49.985Z,102
2018-06-12T09:27:52.428Z,107
2018-06-12T09:28:54.462Z,114
2018-06-12T09:29:56.507Z,121
2018-06-12T09:30:58.941Z,125
2018-06-12T09:32:00.979Z,126
2018-06-12T09:33:03.026Z,102
2018-06-12T09:34:05.070Z,98
2018-06-12T09:35:07.103Z,98
2018-06-12T09:36:09.155Z,103
2018-06-12T09:37:11.199Z,109
2018-06-12T09:38:13.525Z,112
2018-06-12T09:39:15.571Z,112
2018-06-12T09:40:17.620Z,114
2018-06-12T09:41:19.676Z,118
2018-06-12T09:42:21.722Z,123
2018-06-12T09:43:23.756Z,126
2018-06-12T09:44:25.819Z,127
2018-06-12T09:45:28.240Z,125
2018-06-12T09:46:30.286Z,115
2018-06-12T09:47:32.334Z,108
2018-06-12T09:48:34.773Z,104
2018-06-12T09:49:37.126Z,104
2018-06-12T09:50:39.160Z,103
2018-06-12T09:51:41.211Z,99
2018-06-12T09:52:43.255Z,94
2018-06-12T09:53:45.591Z,97
2018-06-12T09:54:47.632Z,103
2018-06-12T09:55:49.667Z,110
2018-06-12T09:56:51.711Z,118
2018-06-12T09:57:53.758Z,124
2018-06-12T09:58:55.792Z,123
2018-06-12T09:59:57.849Z,122
2018-06-12T10:01:00.201Z,124
2018-06-12T10:02:02.248Z,132
2018-06-12T10:03:04.300Z,137
2018-06-12T10:04:06.367Z,135
2018-06-12T10:05:08.689Z,122
2018-06-12T10:06:10.732Z,119
2018-06-12T10:07:12.765Z,124
2018-06-12T10:08:15.096Z,139
2018-06-12T10:09:17.139Z,151
2018-06-12T10:10:19.186Z,150
2018-06-12T10:11:21.229Z,140
2018-06-12T10:12:23.268Z,127
2018-06-12T10:13:25.315Z,120
2018-06-12T10:14:27.639Z,113
2018-06-12T10:15:29.683Z,105
2018-06-12T10:16:31.742Z,100
2018-06-12T10:17:33.779Z,98
2018-06-12T10:18:35.827Z,98
2018-06-12T10:19:37.872Z,98
2018-06-12T10:20:39.907Z,100
2018-06-12T10:21:41.952Z,104
2018-06-12T10:22:44.279Z,113
2018-06-12T10:23:46.338Z,123
2018-06-12T10:24:48.383Z,128
2018-06-12T10:25:50.411Z,129
2018-06-12T10:26:52.455Z,124
2018-06-12T10:27:54.505Z,121
2018-06-12T10:28:56.551Z,120
2018-06-12T10:29:59.275Z,119
2018-06-12T10:31:01.316Z,117
2018-06-12T10:32:03.357Z,118
2018-06-12T10:33:05.790Z,124
2018-06-12T10:34:07.829Z,127
2018-06-12T10:35:09.873Z,134
2018-06-12T10:36:12.215Z,144
2018-06-12T10:37:14.303Z,143
2018-06-12T10:38:16.317Z,139
2018-06-12T10:39:18.360Z,147
2018-06-12T10:40:20.396Z,158
2018-06-12T10:41:22.741Z,179
2018-06-12T10:42:24.791Z,226
2018-06-12T10:43:26.837Z,210
2018-06-12T10:44:28.883Z,207
2018-06-12T10:45:30.922Z,209
2018-06-12T10:46:32.972Z,173
2018-06-12T10:47:34.998Z,164
2018-06-12T10:48:37.048Z,146
2018-06-12T10:49:39.772Z,143
2018-06-12T10:50:41.808Z,147
2018-06-12T10:51:43.861Z,165
2018-06-12T10:52:46.192Z,201
2018-06-12T10:53:48.232Z,318
2018-06-12T10:54:50.280Z,269
2018-06-12T10:55:52.325Z,215
2018-06-12T10:56:54.379Z,205
2018-06-12T10:57:56.426Z,207
2018-06-12T10:58:58.460Z,173
2018-06-12T11:00:00.826Z,159
2018-06-12T11:01:03.159Z,148
2018-06-12T11:02:05.199Z,141
2018-06-12T11:03:07.245Z,139
2018-06-12T11:04:09.285Z,138
2018-06-12T11:05:11.337Z,136
2018-06-12T11:06:13.376Z,137
2018-06-12T11:07:15.419Z,136
2018-06-12T11:08:17.424Z,136
2018-06-12T11:09:19.434Z,175
2018-06-12T11:10:21.446Z,126
2018-06-12T11:11:23.845Z,126
2018-06-12T11:12:25.863Z,126
2018-06-12T11:13:28.161Z,128
2018-06-12T11:14:30.202Z,124
2018-06-12T11:15:32.204Z,122
2018-06-12T11:16:34.596Z,123
2018-06-12T11:17:36.984Z,125
2018-06-12T11:18:39.004Z,127
2018-06-12T11:19:41.294Z,129
2018-06-12T11:20:43.791Z,131
2018-06-12T11:21:45.860Z,138
2018-06-12T11:22:48.151Z,145
2018-06-12T11:23:50.980Z,151
2018-06-12T11:24:52.973Z,160
2018-06-12T11:25:55.363Z,174
2018-06-12T11:26:57.607Z,186
2018-06-12T11:27:59.613Z,198
2018-06-12T11:29:01.631Z,225
2018-06-12T11:30:03.682Z,196
2018-06-12T11:31:05.771Z,166
2018-06-12T11:32:07.801Z,148
2018-06-12T11:33:09.852Z,135
2018-06-12T11:34:11.870Z,126
2018-06-12T11:35:13.884Z,121
2018-06-12T11:36:15.894Z,116
2018-06-12T11:37:17.896Z,111
2018-06-12T11:38:19.908Z,110
2018-06-12T11:39:21.906Z,110
2018-06-12T11:40:23.910Z,110
2018-06-12T11:41:25.904Z,112
2018-06-12T11:42:28.491Z,110
2018-06-12T11:43:30.488Z,106
2018-06-12T11:44:32.489Z,105
2018-06-12T11:45:34.575Z,108
2018-06-12T11:46:36.941Z,115
2018-06-12T11:47:38.940Z,124
2018-06-12T11:48:40.946Z,136
2018-06-12T11:49:43.230Z,148
2018-06-12T11:50:45.749Z,248
2018-06-12T11:51:48.067Z,128
2018-06-12T11:52:50.070Z,115
2018-06-12T11:53:52.356Z,110
2018-06-12T11:54:54.362Z,107
2018-06-12T11:55:56.742Z,107
2018-06-12T11:56:58.780Z,109
2018-06-12T11:58:00.784Z,112
2018-06-12T11:59:02.784Z,115
2018-06-12T12:00:05.074Z,117
2018-06-12T12:01:07.433Z,118
2018-06-12T12:02:09.384Z,119
2018-06-12T12:03:11.372Z,119
2018-06-12T12:04:13.371Z,119
2018-06-12T12:05:15.370Z,123
2018-06-12T12:06:17.455Z,129
2018-06-12T12:07:19.455Z,138
2018-06-12T12:08:21.450Z,147
2018-06-12T12:09:23.449Z,159
2018-06-12T12:10:25.731Z,161
2018-06-12T12:11:28.029Z,148
2018-06-12T12:12:30.174Z,143
2018-06-12T12:13:32.205Z,134
2018-06-12T12:14:34.198Z,129
2018-06-12T12:15:36.194Z,127
2018-06-12T12:16:38.872Z,122
2018-06-12T12:17:41.154Z,114
2018-06-12T12:18:43.165Z,111
2018-06-12T12:19:45.166Z,109
2018-06-12T12:20:47.207Z,108
2018-06-12T12:21:49.168Z,107
2018-06-12T12:22:51.173Z,104
2018-06-12T12:23:53.459Z,97
2018-06-12T12:24:55.468Z,91
2018-06-12T12:25:57.470Z,88
2018-06-12T12:26:59.472Z,87
2018-06-12T12:28:01.473Z,86
2018-06-12T12:29:03.479Z,86
2018-06-12T12:30:05.483Z,88
2018-06-12T12:31:07.477Z,91
2018-06-12T12:32:09.480Z,95
2018-06-12T12:33:11.485Z,101
2018-06-12T12:34:13.492Z,107
2018-06-12T12:35:15.491Z,114
2018-06-12T12:36:17.878Z,125
2018-06-12T12:37:19.874Z,126
2018-06-12T12:38:21.877Z,120
2018-06-12T12:39:23.878Z,113
2018-06-12T12:40:25.879Z,107
2018-06-12T12:41:28.174Z,97
2018-06-12T12:42:30.459Z,94
2018-06-12T12:43:32.463Z,98
2018-06-12T12:44:34.838Z,106
2018-06-12T12:45:36.835Z,113
2018-06-12T12:46:38.834Z,116
2018-06-12T12:47:40.836Z,121
2018-06-12T12:48:42.840Z,127
2018-06-12T12:49:44.844Z,138
2018-06-12T12:50:46.843Z,130
2018-06-12T12:51:48.846Z,126
2018-06-12T12:52:50.883Z,127
2018-06-12T12:53:52.939Z,130
2018-06-12T12:54:54.973Z,139
2018-06-12T12:55:57.304Z,153
2018-06-12T12:56:59.357Z,199
2018-06-12T12:58:01.425Z,210
2018-06-12T12:59:03.498Z,193
2018-06-12T13:00:05.552Z,173
2018-06-12T13:01:07.794Z,195
2018-06-12T13:02:10.241Z,172
2018-06-12T13:03:12.310Z,157
2018-06-12T13:04:14.803Z,133
2018-06-12T13:05:16.888Z,127
2018-06-12T13:06:18.933Z,125
2018-06-12T13:07:20.983Z,127
2018-06-12T13:08:23.380Z,135
2018-06-12T13:09:25.416Z,130
2018-06-12T13:10:27.822Z,125
2018-06-12T13:11:29.872Z,180
2018-06-12T13:12:31.917Z,113
2018-06-12T13:13:33.972Z,108
2018-06-12T13:14:36.039Z,105
2018-06-12T13:15:38.081Z,102
2018-06-12T13:16:40.116Z,99
2018-06-12T13:17:42.155Z,97
2018-06-12T13:18:44.208Z,98
2018-06-12T13:19:46.337Z,101
2018-06-12T13:20:48.387Z,102
2018-06-12T13:21:50.439Z,101
2018-06-12T13:22:52.485Z,101
2018-06-12T13:23:54.531Z,100
2018-06-12T13:24:57.246Z,105
2018-06-12T13:25:59.298Z,111
2018-06-12T13:27:01.469Z,120
2018-06-12T13:28:04.056Z,123
2018-06-12T13:29:06.106Z,129
2018-06-12T13:30:08.150Z,130
2018-06-12T13:31:10.291Z,131
2018-06-12T13:32:12.521Z,126
2018-06-12T13:33:14.570Z,109
2018-06-12T13:34:16.613Z,95
2018-06-12T13:35:18.661Z,85
2018-06-12T13:36:20.702Z,77
2018-06-12T13:37:22.752Z,73
2018-06-12T13:38:24.796Z,70
2018-06-12T13:39:26.840Z,69
2018-06-12T13:40:29.176Z,70
2018-06-12T13:41:31.219Z,72
2018-06-12T13:42:33.263Z,76
2018-06-12T13:43:35.315Z,78
2018-06-12T13:44:37.363Z,80
2018-06-12T13:45:39.405Z,82
2018-06-12T13:46:41.747Z,82
2018-06-12T13:47:43.794Z,78
2018-06-12T13:48:46.231Z,75
2018-06-12T13:49:48.272Z,76
2018-06-12T13:50:50.715Z,79
2018-06-12T13:51:53.035Z,85
2018-06-12T13:52:55.084Z,90
2018-06-12T13:53:57.121Z,99
2018-06-12T13:54:59.163Z,116
2018-06-12T13:56:01.210Z,125
2018-06-12T13:57:03.246Z,121
2018-06-12T13:58:05.284Z,118
2018-06-12T13:59:07.342Z,115
2018-06-12T14:00:09.381Z,108
2018-06-12T14:01:11.425Z,101
2018-06-12T14:02:13.478Z,96
2018-06-12T14:03:15.819Z,93
2018-06-12T14:04:17.869Z,93
2018-06-12T14:05:19.918Z,95
2018-06-12T14:06:21.964Z,95
2018-06-12T14:07:24.009Z,96
2018-06-12T14:08:26.033Z,102
2018-06-12T14:09:28.086Z,114
2018-06-12T14:10:30.119Z,143
2018-06-12T14:11:32.539Z,137
2018-06-12T14:12:34.571Z,138
2018-06-12T14:13:36.877Z,139
2018-06-12T14:14:38.938Z,129
2018-06-12T14:15:40.969Z,120
2018-06-12T14:16:43.014Z,113
2018-06-12T14:17:45.067Z,107
2018-06-12T14:18:47.113Z,101
2018-06-12T14:19:49.156Z,97
2018-06-12T14:20:51.206Z,93
2018-06-12T14:21:53.612Z,93
2018-06-12T14:22:55.892Z,96
2018-06-12T14:23:58.229Z,96
2018-06-12T14:25:00.281Z,97
2018-06-12T14:26:02.326Z,98
2018-06-12T14:27:04.677Z,99
2018-06-12T14:28:06.724Z,102
2018-06-12T14:29:08.773Z,106
2018-06-12T14:30:10.806Z,115
2018-06-12T14:31:12.848Z,125
2018-06-12T14:32:14.902Z,125
2018-06-12T14:33:16.942Z,118
2018-06-12T14:34:18.983Z,108
2018-06-12T14:35:21.031Z,101
2018-06-12T14:36:23.466Z,98
2018-06-12T14:37:25.513Z,98
2018-06-12T14:38:27.551Z,100
2018-06-12T14:39:30.169Z,103
2018-06-12T14:40:32.626Z,101
2018-06-12T14:41:34.608Z,94
2018-06-12T14:42:36.662Z,86
2018-06-12T14:43:38.712Z,82
2018-06-12T14:44:40.758Z,79
2018-06-12T14:45:42.798Z,77
2018-06-12T14:46:44.849Z,74
2018-06-12T14:47:46.897Z,73
2018-06-12T14:48:49.318Z,70
2018-06-12T14:49:51.359Z,68